Weather at Soroka Medical Center

Public forecast

Using degrees Celsius for public forecast. Weather courtesy of forecast.io.

Closest aviation weather report (METAR) to Soroka Medical Center

Closest report is Ben Gurion International Airport, 45.4 nm (84.1 km) N. Retrieved 2020/11/28 01:20 UTC (0 seconds ago):

LLBG 280120Z VRB01KT CAVOK 13/12 Q1016 NOSIG RMK SCT100

Closest aviation forecast (TAF) to Soroka Medical Center

Forecast is more than 12 hours old.

Closest forecast is El Gora Airport, 36.3 nm (67.2 km) WSW. Retrieved 2020/11/26 06:00 UTC (2 days ago):

TAF HEGR 260500Z 2606/2712 31010KT 9999 SCT020 TEMPO 2606/2615 4000 RA BKN025 TEMPO 2606/2612 2000 TSSHRA FEW017CB